sensor_id;sensor_type;location;lat;lon;timestamp;P1;durP1;ratioP1;P2;durP2;ratioP2
20511;SDS011;10414;52.074;5.126;2024-03-17T00:01:39;10.00;;;4.32;;
20511;SDS011;10414;52.074;5.126;2024-03-17T00:04:06;10.75;;;4.35;;
20511;SDS011;10414;52.074;5.126;2024-03-17T00:06:35;10.38;;;4.22;;
20511;SDS011;10414;52.074;5.126;2024-03-17T00:09:01;12.35;;;4.75;;
20511;SDS011;10414;52.074;5.126;2024-03-17T00:11:31;13.73;;;4.20;;
20511;SDS011;10414;52.074;5.126;2024-03-17T00:13:57;16.67;;;4.65;;
20511;SDS011;10414;52.074;5.126;2024-03-17T00:16:25;11.25;;;4.30;;
20511;SDS011;10414;52.074;5.126;2024-03-17T00:18:51;12.02;;;4.72;;
20511;SDS011;10414;52.074;5.126;2024-03-17T00:21:18;11.05;;;4.53;;
20511;SDS011;10414;52.074;5.126;2024-03-17T00:23:46;9.52;;;4.63;;
20511;SDS011;10414;52.074;5.126;2024-03-17T00:26:14;12.52;;;5.03;;
20511;SDS011;10414;52.074;5.126;2024-03-17T00:28:40;11.85;;;4.68;;
20511;SDS011;10414;52.074;5.126;2024-03-17T00:31:11;12.98;;;4.72;;
20511;SDS011;10414;52.074;5.126;2024-03-17T00:33:39;11.52;;;4.30;;
20511;SDS011;10414;52.074;5.126;2024-03-17T00:36:07;11.88;;;4.53;;
20511;SDS011;10414;52.074;5.126;2024-03-17T00:38:33;13.13;;;4.70;;
20511;SDS011;10414;52.074;5.126;2024-03-17T00:41:03;15.10;;;4.78;;
20511;SDS011;10414;52.074;5.126;2024-03-17T00:43:29;12.32;;;4.55;;
20511;SDS011;10414;52.074;5.126;2024-03-17T00:45:57;13.30;;;5.05;;
20511;SDS011;10414;52.074;5.126;2024-03-17T00:48:24;11.10;;;4.50;;
20511;SDS011;10414;52.074;5.126;2024-03-17T00:50:55;15.68;;;5.57;;
20511;SDS011;10414;52.074;5.126;2024-03-17T00:53:21;12.65;;;4.53;;
20511;SDS011;10414;52.074;5.126;2024-03-17T00:55:51;15.02;;;4.80;;
20511;SDS011;10414;52.074;5.126;2024-03-17T00:58:19;9.73;;;4.32;;
20511;SDS011;10414;52.074;5.126;2024-03-17T01:00:47;13.82;;;4.95;;
20511;SDS011;10414;52.074;5.126;2024-03-17T01:03:13;11.85;;;4.88;;
20511;SDS011;10414;52.074;5.126;2024-03-17T01:05:40;13.60;;;4.60;;
20511;SDS011;10414;52.074;5.126;2024-03-17T01:08:08;14.90;;;4.47;;
20511;SDS011;10414;52.074;5.126;2024-03-17T01:10:36;12.00;;;4.75;;
20511;SDS011;10414;52.074;5.126;2024-03-17T01:13:03;19.17;;;5.13;;
20511;SDS011;10414;52.074;5.126;2024-03-17T01:15:31;10.93;;;4.80;;
20511;SDS011;10414;52.074;5.126;2024-03-17T01:17:58;12.85;;;4.63;;
20511;SDS011;10414;52.074;5.126;2024-03-17T01:20:25;11.32;;;4.72;;
20511;SDS011;10414;52.074;5.126;2024-03-17T01:22:52;9.48;;;4.85;;
20511;SDS011;10414;52.074;5.126;2024-03-17T01:25:19;12.23;;;5.10;;
20511;SDS011;10414;52.074;5.126;2024-03-17T01:27:46;13.05;;;5.18;;
20511;SDS011;10414;52.074;5.126;2024-03-17T01:30:12;10.75;;;4.57;;
20511;SDS011;10414;52.074;5.126;2024-03-17T01:32:41;13.63;;;5.22;;
20511;SDS011;10414;52.074;5.126;2024-03-17T01:35:07;11.45;;;4.82;;
20511;SDS011;10414;52.074;5.126;2024-03-17T01:37:35;9.55;;;5.13;;
20511;SDS011;10414;52.074;5.126;2024-03-17T01:40:02;10.25;;;4.53;;
20511;SDS011;10414;52.074;5.126;2024-03-17T01:42:29;13.18;;;5.13;;
20511;SDS011;10414;52.074;5.126;2024-03-17T01:44:57;10.18;;;4.60;;
20511;SDS011;10414;52.074;5.126;2024-03-17T01:47:23;11.52;;;4.68;;
20511;SDS011;10414;52.074;5.126;2024-03-17T01:49:51;10.73;;;4.72;;
20511;SDS011;10414;52.074;5.126;2024-03-17T01:52:19;13.07;;;5.55;;
20511;SDS011;10414;52.074;5.126;2024-03-17T01:54:47;15.55;;;5.97;;
20511;SDS011;10414;52.074;5.126;2024-03-17T01:57:14;15.95;;;5.38;;
20511;SDS011;10414;52.074;5.126;2024-03-17T01:59:41;11.07;;;5.20;;
20511;SDS011;10414;52.074;5.126;2024-03-17T02:02:07;10.00;;;4.50;;
20511;SDS011;10414;52.074;5.126;2024-03-17T02:04:35;12.25;;;5.30;;
20511;SDS011;10414;52.074;5.126;2024-03-17T02:07:03;10.63;;;4.97;;
20511;SDS011;10414;52.074;5.126;2024-03-17T02:09:30;10.38;;;5.15;;
20511;SDS011;10414;52.074;5.126;2024-03-17T02:11:57;12.85;;;5.45;;
20511;SDS011;10414;52.074;5.126;2024-03-17T02:14:24;12.95;;;5.03;;
20511;SDS011;10414;52.074;5.126;2024-03-17T02:16:50;14.25;;;5.50;;
20511;SDS011;10414;52.074;5.126;2024-03-17T02:19:17;11.73;;;4.93;;
20511;SDS011;10414;52.074;5.126;2024-03-17T02:21:44;13.98;;;4.72;;
20511;SDS011;10414;52.074;5.126;2024-03-17T02:24:12;9.88;;;4.60;;
20511;SDS011;10414;52.074;5.126;2024-03-17T02:26:39;11.00;;;5.30;;
20511;SDS011;10414;52.074;5.126;2024-03-17T02:29:06;11.27;;;4.95;;
20511;SDS011;10414;52.074;5.126;2024-03-17T02:31:32;10.27;;;4.88;;
20511;SDS011;10414;52.074;5.126;2024-03-17T02:33:59;11.45;;;4.65;;
20511;SDS011;10414;52.074;5.126;2024-03-17T02:36:26;9.45;;;4.50;;
20511;SDS011;10414;52.074;5.126;2024-03-17T02:38:53;10.80;;;4.90;;
20511;SDS011;10414;52.074;5.126;2024-03-17T02:41:43;12.07;;;4.65;;
20511;SDS011;10414;52.074;5.126;2024-03-17T02:44:10;14.60;;;4.72;;
20511;SDS011;10414;52.074;5.126;2024-03-17T02:46:38;10.73;;;4.97;;
20511;SDS011;10414;52.074;5.126;2024-03-17T02:49:05;10.57;;;4.85;;
20511;SDS011;10414;52.074;5.126;2024-03-17T02:51:33;12.88;;;5.10;;
20511;SDS011;10414;52.074;5.126;2024-03-17T02:54:00;10.00;;;4.22;;
20511;SDS011;10414;52.074;5.126;2024-03-17T02:56:28;12.55;;;5.13;;
20511;SDS011;10414;52.074;5.126;2024-03-17T02:58:57;10.32;;;4.63;;
20511;SDS011;10414;52.074;5.126;2024-03-17T03:01:24;12.18;;;5.00;;
20511;SDS011;10414;52.074;5.126;2024-03-17T03:03:51;11.30;;;4.80;;
20511;SDS011;10414;52.074;5.126;2024-03-17T03:06:19;12.20;;;4.65;;
20511;SDS011;10414;52.074;5.126;2024-03-17T03:08:46;11.02;;;5.30;;
20511;SDS011;10414;52.074;5.126;2024-03-17T03:11:16;10.38;;;5.55;;
20511;SDS011;10414;52.074;5.126;2024-03-17T03:13:43;9.43;;;5.28;;
20511;SDS011;10414;52.074;5.126;2024-03-17T03:16:13;13.15;;;5.10;;
20511;SDS011;10414;52.074;5.126;2024-03-17T03:18:41;8.95;;;4.90;;
20511;SDS011;10414;52.074;5.126;2024-03-17T03:21:09;9.32;;;5.18;;
20511;SDS011;10414;52.074;5.126;2024-03-17T03:23:36;11.20;;;4.75;;
20511;SDS011;10414;52.074;5.126;2024-03-17T03:26:04;13.50;;;5.15;;
20511;SDS011;10414;52.074;5.126;2024-03-17T03:28:34;10.52;;;4.88;;
20511;SDS011;10414;52.074;5.126;2024-03-17T03:31:01;9.88;;;5.50;;
20511;SDS011;10414;52.074;5.126;2024-03-17T03:33:29;10.73;;;4.82;;
20511;SDS011;10414;52.074;5.126;2024-03-17T03:35:57;13.25;;;5.20;;
20511;SDS011;10414;52.074;5.126;2024-03-17T03:38:24;10.63;;;4.82;;
20511;SDS011;10414;52.074;5.126;2024-03-17T03:40:51;11.18;;;4.70;;
20511;SDS011;10414;52.074;5.126;2024-03-17T03:43:19;15.93;;;5.60;;
20511;SDS011;10414;52.074;5.126;2024-03-17T03:45:46;12.07;;;4.60;;
20511;SDS011;10414;52.074;5.126;2024-03-17T03:48:13;10.27;;;4.82;;
20511;SDS011;10414;52.074;5.126;2024-03-17T03:50:42;9.38;;;5.35;;
20511;SDS011;10414;52.074;5.126;2024-03-17T03:53:08;12.32;;;5.30;;
20511;SDS011;10414;52.074;5.126;2024-03-17T03:55:36;12.93;;;5.35;;
20511;SDS011;10414;52.074;5.126;2024-03-17T03:58:04;11.98;;;5.75;;
20511;SDS011;10414;52.074;5.126;2024-03-17T04:00:31;10.13;;;4.93;;
20511;SDS011;10414;52.074;5.126;2024-03-17T04:02:59;11.60;;;5.60;;
20511;SDS011;10414;52.074;5.126;2024-03-17T04:05:27;15.98;;;5.60;;
20511;SDS011;10414;52.074;5.126;2024-03-17T04:07:55;14.10;;;5.75;;
20511;SDS011;10414;52.074;5.126;2024-03-17T04:10:23;10.32;;;5.70;;
20511;SDS011;10414;52.074;5.126;2024-03-17T04:12:50;11.98;;;5.65;;
20511;SDS011;10414;52.074;5.126;2024-03-17T04:15:17;12.60;;;5.63;;
20511;SDS011;10414;52.074;5.126;2024-03-17T04:17:45;10.23;;;5.10;;
20511;SDS011;10414;52.074;5.126;2024-03-17T04:20:12;13.20;;;5.75;;
20511;SDS011;10414;52.074;5.126;2024-03-17T04:22:39;13.38;;;6.25;;
20511;SDS011;10414;52.074;5.126;2024-03-17T04:25:09;10.55;;;5.38;;
20511;SDS011;10414;52.074;5.126;2024-03-17T04:27:37;11.60;;;5.65;;
20511;SDS011;10414;52.074;5.126;2024-03-17T04:30:04;12.50;;;6.03;;
20511;SDS011;10414;52.074;5.126;2024-03-17T04:32:32;12.02;;;5.68;;
20511;SDS011;10414;52.074;5.126;2024-03-17T04:35:00;13.32;;;5.90;;
20511;SDS011;10414;52.074;5.126;2024-03-17T04:37:27;10.80;;;5.47;;
20511;SDS011;10414;52.074;5.126;2024-03-17T04:39:54;12.45;;;5.80;;
20511;SDS011;10414;52.074;5.126;2024-03-17T04:42:24;12.05;;;6.38;;
20511;SDS011;10414;52.074;5.126;2024-03-17T04:44:51;13.57;;;6.07;;
20511;SDS011;10414;52.074;5.126;2024-03-17T04:47:18;12.18;;;6.32;;
20511;SDS011;10414;52.074;5.126;2024-03-17T04:49:45;16.73;;;6.32;;
20511;SDS011;10414;52.074;5.126;2024-03-17T04:52:14;13.55;;;6.07;;
20511;SDS011;10414;52.074;5.126;2024-03-17T04:54:41;14.35;;;6.82;;
20511;SDS011;10414;52.074;5.126;2024-03-17T04:57:09;12.95;;;6.50;;
20511;SDS011;10414;52.074;5.126;2024-03-17T04:59:37;17.02;;;7.15;;
20511;SDS011;10414;52.074;5.126;2024-03-17T05:02:05;14.55;;;6.30;;
20511;SDS011;10414;52.074;5.126;2024-03-17T05:04:32;12.43;;;6.40;;
20511;SDS011;10414;52.074;5.126;2024-03-17T05:06:59;12.90;;;5.95;;
20511;SDS011;10414;52.074;5.126;2024-03-17T05:09:27;15.73;;;6.10;;
20511;SDS011;10414;52.074;5.126;2024-03-17T05:11:54;12.07;;;6.47;;
20511;SDS011;10414;52.074;5.126;2024-03-17T05:14:21;13.05;;;6.35;;
20511;SDS011;10414;52.074;5.126;2024-03-17T05:16:51;14.63;;;6.60;;
20511;SDS011;10414;52.074;5.126;2024-03-17T05:19:19;12.73;;;6.63;;
20511;SDS011;10414;52.074;5.126;2024-03-17T05:21:46;17.05;;;6.28;;
20511;SDS011;10414;52.074;5.126;2024-03-17T05:24:13;13.13;;;6.50;;
20511;SDS011;10414;52.074;5.126;2024-03-17T05:26:41;13.95;;;6.57;;
20511;SDS011;10414;52.074;5.126;2024-03-17T05:29:08;14.90;;;6.53;;
20511;SDS011;10414;52.074;5.126;2024-03-17T05:31:35;13.35;;;6.60;;
20511;SDS011;10414;52.074;5.126;2024-03-17T05:34:05;17.15;;;6.63;;
20511;SDS011;10414;52.074;5.126;2024-03-17T05:36:34;13.85;;;7.00;;
20511;SDS011;10414;52.074;5.126;2024-03-17T05:39:01;16.63;;;7.10;;
20511;SDS011;10414;52.074;5.126;2024-03-17T05:41:28;11.98;;;5.95;;
20511;SDS011;10414;52.074;5.126;2024-03-17T05:43:55;16.38;;;7.00;;
20511;SDS011;10414;52.074;5.126;2024-03-17T05:46:23;15.27;;;6.82;;
20511;SDS011;10414;52.074;5.126;2024-03-17T05:48:51;12.05;;;6.72;;
20511;SDS011;10414;52.074;5.126;2024-03-17T05:51:20;11.23;;;6.10;;
20511;SDS011;10414;52.074;5.126;2024-03-17T05:53:50;13.43;;;6.32;;
20511;SDS011;10414;52.074;5.126;2024-03-17T05:56:17;22.17;;;7.05;;
20511;SDS011;10414;52.074;5.126;2024-03-17T05:58:45;14.20;;;6.60;;
20511;SDS011;10414;52.074;5.126;2024-03-17T06:01:13;12.07;;;6.47;;
20511;SDS011;10414;52.074;5.126;2024-03-17T06:03:40;14.13;;;6.78;;
20511;SDS011;10414;52.074;5.126;2024-03-17T06:06:08;14.80;;;6.90;;
20511;SDS011;10414;52.074;5.126;2024-03-17T06:08:37;12.88;;;6.43;;
20511;SDS011;10414;52.074;5.126;2024-03-17T06:11:05;11.95;;;6.00;;
20511;SDS011;10414;52.074;5.126;2024-03-17T06:13:33;14.30;;;6.22;;
20511;SDS011;10414;52.074;5.126;2024-03-17T06:16:01;12.90;;;6.55;;
20511;SDS011;10414;52.074;5.126;2024-03-17T06:18:30;13.35;;;6.32;;
20511;SDS011;10414;52.074;5.126;2024-03-17T06:20:57;10.25;;;5.78;;
20511;SDS011;10414;52.074;5.126;2024-03-17T06:23:24;13.63;;;6.40;;
20511;SDS011;10414;52.074;5.126;2024-03-17T06:25:54;15.48;;;6.82;;
20511;SDS011;10414;52.074;5.126;2024-03-17T06:28:22;11.32;;;5.82;;
20511;SDS011;10414;52.074;5.126;2024-03-17T06:30:56;13.65;;;6.50;;
20511;SDS011;10414;52.074;5.126;2024-03-17T06:33:24;13.75;;;6.40;;
20511;SDS011;10414;52.074;5.126;2024-03-17T06:35:51;12.90;;;6.40;;
20511;SDS011;10414;52.074;5.126;2024-03-17T06:38:18;15.57;;;7.07;;
20511;SDS011;10414;52.074;5.126;2024-03-17T06:40:49;13.65;;;6.78;;
20511;SDS011;10414;52.074;5.126;2024-03-17T06:43:17;13.48;;;6.65;;
20511;SDS011;10414;52.074;5.126;2024-03-17T06:45:53;15.02;;;6.57;;
20511;SDS011;10414;52.074;5.126;2024-03-17T06:48:21;11.00;;;5.80;;
20511;SDS011;10414;52.074;5.126;2024-03-17T06:50:48;15.00;;;6.80;;
20511;SDS011;10414;52.074;5.126;2024-03-17T06:53:17;12.18;;;6.03;;
20511;SDS011;10414;52.074;5.126;2024-03-17T06:55:51;11.73;;;6.38;;
20511;SDS011;10414;52.074;5.126;2024-03-17T06:58:20;12.60;;;5.97;;
20511;SDS011;10414;52.074;5.126;2024-03-17T07:00:51;14.07;;;6.07;;
20511;SDS011;10414;52.074;5.126;2024-03-17T07:03:19;12.95;;;6.88;;
20511;SDS011;10414;52.074;5.126;2024-03-17T07:05:50;13.38;;;7.07;;
20511;SDS011;10414;52.074;5.126;2024-03-17T07:08:17;13.68;;;7.50;;
20511;SDS011;10414;52.074;5.126;2024-03-17T07:10:54;21.10;;;8.05;;
20511;SDS011;10414;52.074;5.126;2024-03-17T07:13:22;13.18;;;6.88;;
20511;SDS011;10414;52.074;5.126;2024-03-17T07:15:50;18.08;;;8.38;;
20511;SDS011;10414;52.074;5.126;2024-03-17T07:18:17;15.93;;;6.55;;
20511;SDS011;10414;52.074;5.126;2024-03-17T07:20:44;11.45;;;6.07;;
20511;SDS011;10414;52.074;5.126;2024-03-17T07:23:12;14.23;;;7.38;;
20511;SDS011;10414;52.074;5.126;2024-03-17T07:25:40;14.55;;;6.68;;
20511;SDS011;10414;52.074;5.126;2024-03-17T07:28:07;14.75;;;6.60;;
20511;SDS011;10414;52.074;5.126;2024-03-17T07:30:36;17.05;;;7.47;;
20511;SDS011;10414;52.074;5.126;2024-03-17T07:33:04;15.55;;;7.50;;
20511;SDS011;10414;52.074;5.126;2024-03-17T07:35:31;15.77;;;7.10;;
20511;SDS011;10414;52.074;5.126;2024-03-17T07:37:58;12.85;;;7.10;;
20511;SDS011;10414;52.074;5.126;2024-03-17T07:40:25;14.20;;;7.05;;
20511;SDS011;10414;52.074;5.126;2024-03-17T07:42:53;13.85;;;7.90;;
20511;SDS011;10414;52.074;5.126;2024-03-17T07:45:20;15.40;;;7.40;;
20511;SDS011;10414;52.074;5.126;2024-03-17T07:47:50;16.05;;;7.53;;
20511;SDS011;10414;52.074;5.126;2024-03-17T07:50:17;14.07;;;7.30;;
20511;SDS011;10414;52.074;5.126;2024-03-17T07:52:44;13.40;;;6.78;;
20511;SDS011;10414;52.074;5.126;2024-03-17T07:55:11;12.23;;;6.80;;
20511;SDS011;10414;52.074;5.126;2024-03-17T07:57:39;13.18;;;6.60;;
20511;SDS011;10414;52.074;5.126;2024-03-17T08:00:07;15.43;;;7.20;;
20511;SDS011;10414;52.074;5.126;2024-03-17T08:02:41;14.07;;;7.80;;
20511;SDS011;10414;52.074;5.126;2024-03-17T08:05:10;15.65;;;7.65;;
20511;SDS011;10414;52.074;5.126;2024-03-17T08:07:37;13.10;;;7.15;;
20511;SDS011;10414;52.074;5.126;2024-03-17T08:10:04;15.82;;;7.80;;
20511;SDS011;10414;52.074;5.126;2024-03-17T08:12:32;14.52;;;7.38;;
20511;SDS011;10414;52.074;5.126;2024-03-17T08:14:59;15.35;;;6.93;;
20511;SDS011;10414;52.074;5.126;2024-03-17T08:17:27;13.40;;;6.78;;
20511;SDS011;10414;52.074;5.126;2024-03-17T08:19:54;14.93;;;6.60;;
20511;SDS011;10414;52.074;5.126;2024-03-17T08:22:23;13.65;;;6.97;;
20511;SDS011;10414;52.074;5.126;2024-03-17T08:24:50;14.18;;;7.05;;
20511;SDS011;10414;52.074;5.126;2024-03-17T08:27:19;17.70;;;7.13;;
20511;SDS011;10414;52.074;5.126;2024-03-17T08:29:46;12.00;;;6.88;;
20511;SDS011;10414;52.074;5.126;2024-03-17T08:32:13;15.43;;;7.18;;
20511;SDS011;10414;52.074;5.126;2024-03-17T08:34:42;11.90;;;6.88;;
20511;SDS011;10414;52.074;5.126;2024-03-17T08:37:12;14.30;;;7.00;;
20511;SDS011;10414;52.074;5.126;2024-03-17T08:39:41;10.25;;;5.65;;
20511;SDS011;10414;52.074;5.126;2024-03-17T08:42:08;11.70;;;6.63;;
20511;SDS011;10414;52.074;5.126;2024-03-17T08:44:35;13.55;;;6.60;;
20511;SDS011;10414;52.074;5.126;2024-03-17T08:47:03;13.50;;;7.20;;
20511;SDS011;10414;52.074;5.126;2024-03-17T08:49:30;11.48;;;6.22;;
20511;SDS011;10414;52.074;5.126;2024-03-17T08:51:57;11.07;;;6.43;;
20511;SDS011;10414;52.074;5.126;2024-03-17T08:54:24;10.68;;;5.88;;
20511;SDS011;10414;52.074;5.126;2024-03-17T08:56:53;11.70;;;6.50;;
20511;SDS011;10414;52.074;5.126;2024-03-17T08:59:20;10.52;;;5.82;;
20511;SDS011;10414;52.074;5.126;2024-03-17T09:01:47;11.50;;;6.03;;
20511;SDS011;10414;52.074;5.126;2024-03-17T09:04:15;13.45;;;6.75;;
20511;SDS011;10414;52.074;5.126;2024-03-17T09:06:42;12.93;;;5.90;;
20511;SDS011;10414;52.074;5.126;2024-03-17T09:09:09;11.27;;;5.82;;
20511;SDS011;10414;52.074;5.126;2024-03-17T09:11:39;11.73;;;5.80;;
20511;SDS011;10414;52.074;5.126;2024-03-17T09:14:07;13.27;;;6.38;;
20511;SDS011;10414;52.074;5.126;2024-03-17T09:16:36;10.77;;;5.95;;
20511;SDS011;10414;52.074;5.126;2024-03-17T09:19:03;11.48;;;6.32;;
20511;SDS011;10414;52.074;5.126;2024-03-17T09:21:31;11.25;;;5.78;;
20511;SDS011;10414;52.074;5.126;2024-03-17T09:23:59;12.20;;;6.15;;
20511;SDS011;10414;52.074;5.126;2024-03-17T09:26:28;11.60;;;6.25;;
20511;SDS011;10414;52.074;5.126;2024-03-17T09:28:55;11.55;;;6.25;;
20511;SDS011;10414;52.074;5.126;2024-03-17T09:31:23;9.90;;;5.07;;
20511;SDS011;10414;52.074;5.126;2024-03-17T09:33:51;12.18;;;5.63;;
20511;SDS011;10414;52.074;5.126;2024-03-17T09:36:18;9.98;;;5.95;;
20511;SDS011;10414;52.074;5.126;2024-03-17T09:38:45;12.20;;;5.82;;
20511;SDS011;10414;52.074;5.126;2024-03-17T09:41:19;11.32;;;5.68;;
20511;SDS011;10414;52.074;5.126;2024-03-17T09:43:49;10.85;;;5.70;;
20511;SDS011;10414;52.074;5.126;2024-03-17T09:46:17;11.55;;;5.63;;
20511;SDS011;10414;52.074;5.126;2024-03-17T09:48:47;11.65;;;6.00;;
20511;SDS011;10414;52.074;5.126;2024-03-17T09:51:16;10.35;;;5.72;;
20511;SDS011;10414;52.074;5.126;2024-03-17T09:53:45;12.82;;;6.38;;
20511;SDS011;10414;52.074;5.126;2024-03-17T09:56:13;12.02;;;6.10;;
20511;SDS011;10414;52.074;5.126;2024-03-17T09:58:41;12.95;;;5.82;;
20511;SDS011;10414;52.074;5.126;2024-03-17T10:01:08;11.18;;;6.30;;
20511;SDS011;10414;52.074;5.126;2024-03-17T10:03:40;12.13;;;6.00;;
20511;SDS011;10414;52.074;5.126;2024-03-17T10:06:09;12.57;;;6.18;;
20511;SDS011;10414;52.074;5.126;2024-03-17T10:08:43;10.40;;;5.70;;
20511;SDS011;10414;52.074;5.126;2024-03-17T10:11:11;10.80;;;5.60;;
20511;SDS011;10414;52.074;5.126;2024-03-17T10:13:40;12.88;;;5.68;;
20511;SDS011;10414;52.074;5.126;2024-03-17T10:16:07;12.13;;;6.00;;
20511;SDS011;10414;52.074;5.126;2024-03-17T10:18:44;9.80;;;5.35;;
20511;SDS011;10414;52.074;5.126;2024-03-17T10:21:20;13.43;;;5.50;;
20511;SDS011;10414;52.074;5.126;2024-03-17T10:23:51;10.05;;;5.68;;
20511;SDS011;10414;52.074;5.126;2024-03-17T10:26:31;9.43;;;5.85;;
20511;SDS011;10414;52.074;5.126;2024-03-17T10:28:58;13.15;;;5.43;;
20511;SDS011;10414;52.074;5.126;2024-03-17T10:31:26;12.73;;;5.57;;
20511;SDS011;10414;52.074;5.126;2024-03-17T10:34:00;11.57;;;5.85;;
20511;SDS011;10414;52.074;5.126;2024-03-17T10:36:29;10.20;;;6.05;;
20511;SDS011;10414;52.074;5.126;2024-03-17T10:38:56;13.02;;;5.90;;
20511;SDS011;10414;52.074;5.126;2024-03-17T10:41:23;10.20;;;5.63;;
20511;SDS011;10414;52.074;5.126;2024-03-17T10:43:53;10.57;;;5.45;;
20511;SDS011;10414;52.074;5.126;2024-03-17T10:46:21;10.77;;;5.45;;
20511;SDS011;10414;52.074;5.126;2024-03-17T10:48:50;9.38;;;4.50;;
20511;SDS011;10414;52.074;5.126;2024-03-17T10:51:19;10.32;;;5.35;;
20511;SDS011;10414;52.074;5.126;2024-03-17T10:53:48;9.05;;;5.20;;
20511;SDS011;10414;52.074;5.126;2024-03-17T10:56:18;9.05;;;5.20;;
20511;SDS011;10414;52.074;5.126;2024-03-17T10:58:46;11.68;;;5.57;;
20511;SDS011;10414;52.074;5.126;2024-03-17T11:01:17;10.85;;;5.40;;
20511;SDS011;10414;52.074;5.126;2024-03-17T11:03:46;10.45;;;4.95;;
20511;SDS011;10414;52.074;5.126;2024-03-17T11:06:15;10.23;;;5.32;;
20511;SDS011;10414;52.074;5.126;2024-03-17T11:08:43;9.27;;;5.10;;
20511;SDS011;10414;52.074;5.126;2024-03-17T11:11:11;8.25;;;5.05;;
20511;SDS011;10414;52.074;5.126;2024-03-17T11:13:39;8.77;;;5.13;;
20511;SDS011;10414;52.074;5.126;2024-03-17T11:16:06;8.57;;;4.82;;
20511;SDS011;10414;52.074;5.126;2024-03-17T11:18:51;9.50;;;5.40;;
20511;SDS011;10414;52.074;5.126;2024-03-17T11:21:20;13.57;;;5.50;;
20511;SDS011;10414;52.074;5.126;2024-03-17T11:23:57;10.95;;;5.70;;
20511;SDS011;10414;52.074;5.126;2024-03-17T11:26:29;11.00;;;5.68;;
20511;SDS011;10414;52.074;5.126;2024-03-17T11:28:57;11.60;;;5.85;;
20511;SDS011;10414;52.074;5.126;2024-03-17T11:31:41;11.63;;;6.05;;
20511;SDS011;10414;52.074;5.126;2024-03-17T11:34:27;9.68;;;5.43;;
20511;SDS011;10414;52.074;5.126;2024-03-17T11:36:55;10.32;;;5.50;;
20511;SDS011;10414;52.074;5.126;2024-03-17T11:39:21;9.70;;;5.55;;
20511;SDS011;10414;52.074;5.126;2024-03-17T11:42:10;9.88;;;5.32;;
20511;SDS011;10414;52.074;5.126;2024-03-17T11:44:41;9.90;;;5.50;;
20511;SDS011;10414;52.074;5.126;2024-03-17T11:47:07;11.90;;;5.57;;
20511;SDS011;10414;52.074;5.126;2024-03-17T11:49:35;10.57;;;5.47;;
20511;SDS011;10414;52.074;5.126;2024-03-17T11:52:03;10.70;;;5.30;;
20511;SDS011;10414;52.074;5.126;2024-03-17T11:54:32;12.40;;;5.55;;
20511;SDS011;10414;52.074;5.126;2024-03-17T11:57:00;8.43;;;4.88;;
20511;SDS011;10414;52.074;5.126;2024-03-17T11:59:28;10.43;;;5.15;;
20511;SDS011;10414;52.074;5.126;2024-03-17T12:01:55;12.15;;;5.07;;
20511;SDS011;10414;52.074;5.126;2024-03-17T12:04:22;9.55;;;5.25;;
20511;SDS011;10414;52.074;5.126;2024-03-17T12:06:50;10.20;;;5.28;;
20511;SDS011;10414;52.074;5.126;2024-03-17T12:09:19;10.63;;;5.43;;
20511;SDS011;10414;52.074;5.126;2024-03-17T12:11:49;13.45;;;5.50;;
20511;SDS011;10414;52.074;5.126;2024-03-17T12:14:17;14.77;;;5.18;;
20511;SDS011;10414;52.074;5.126;2024-03-17T12:16:52;13.45;;;5.40;;
20511;SDS011;10414;52.074;5.126;2024-03-17T12:21:47;11.32;;;5.50;;
20511;SDS011;10414;52.074;5.126;2024-03-17T12:24:15;12.40;;;5.80;;
20511;SDS011;10414;52.074;5.126;2024-03-17T12:26:42;12.00;;;5.85;;
20511;SDS011;10414;52.074;5.126;2024-03-17T12:29:21;12.30;;;5.53;;
20511;SDS011;10414;52.074;5.126;2024-03-17T12:31:47;10.40;;;4.75;;
20511;SDS011;10414;52.074;5.126;2024-03-17T12:34:16;14.68;;;6.07;;
20511;SDS011;10414;52.074;5.126;2024-03-17T12:36:42;10.38;;;5.68;;
20511;SDS011;10414;52.074;5.126;2024-03-17T12:39:10;14.25;;;6.15;;
20511;SDS011;10414;52.074;5.126;2024-03-17T12:41:36;11.45;;;5.47;;
20511;SDS011;10414;52.074;5.126;2024-03-17T12:44:04;12.07;;;6.13;;
20511;SDS011;10414;52.074;5.126;2024-03-17T12:46:30;11.57;;;5.90;;
20511;SDS011;10414;52.074;5.126;2024-03-17T12:48:58;11.88;;;5.70;;
20511;SDS011;10414;52.074;5.126;2024-03-17T12:51:26;11.48;;;6.10;;
20511;SDS011;10414;52.074;5.126;2024-03-17T12:56:34;9.60;;;5.20;;
20511;SDS011;10414;52.074;5.126;2024-03-17T12:59:24;10.30;;;5.43;;
20511;SDS011;10414;52.074;5.126;2024-03-17T13:02:21;9.52;;;4.65;;
20511;SDS011;10414;52.074;5.126;2024-03-17T13:05:04;9.10;;;5.07;;
20511;SDS011;10414;52.074;5.126;2024-03-17T13:07:33;10.10;;;5.18;;
20511;SDS011;10414;52.074;5.126;2024-03-17T13:10:00;11.82;;;5.03;;
20511;SDS011;10414;52.074;5.126;2024-03-17T13:12:28;11.35;;;5.22;;
20511;SDS011;10414;52.074;5.126;2024-03-17T13:14:55;10.65;;;4.72;;
20511;SDS011;10414;52.074;5.126;2024-03-17T13:17:22;10.13;;;4.90;;
20511;SDS011;10414;52.074;5.126;2024-03-17T13:19:50;9.40;;;4.53;;
20511;SDS011;10414;52.074;5.126;2024-03-17T13:22:17;11.65;;;5.43;;
20511;SDS011;10414;52.074;5.126;2024-03-17T13:24:46;8.55;;;4.72;;
20511;SDS011;10414;52.074;5.126;2024-03-17T13:27:13;10.95;;;5.13;;
20511;SDS011;10414;52.074;5.126;2024-03-17T13:29:41;10.30;;;4.68;;
20511;SDS011;10414;52.074;5.126;2024-03-17T13:32:09;9.55;;;4.72;;
20511;SDS011;10414;52.074;5.126;2024-03-17T13:34:36;9.77;;;4.82;;
20511;SDS011;10414;52.074;5.126;2024-03-17T13:37:03;11.63;;;5.00;;
20511;SDS011;10414;52.074;5.126;2024-03-17T13:39:31;8.27;;;4.22;;
20511;SDS011;10414;52.074;5.126;2024-03-17T13:42:00;9.90;;;4.43;;
20511;SDS011;10414;52.074;5.126;2024-03-17T13:44:28;10.40;;;4.43;;
20511;SDS011;10414;52.074;5.126;2024-03-17T13:46:56;10.10;;;5.00;;
20511;SDS011;10414;52.074;5.126;2024-03-17T13:49:23;9.60;;;4.32;;
20511;SDS011;10414;52.074;5.126;2024-03-17T13:51:51;11.20;;;4.90;;
20511;SDS011;10414;52.074;5.126;2024-03-17T13:54:18;10.88;;;4.85;;
20511;SDS011;10414;52.074;5.126;2024-03-17T13:56:46;9.50;;;4.63;;
20511;SDS011;10414;52.074;5.126;2024-03-17T13:59:15;10.48;;;4.40;;
20511;SDS011;10414;52.074;5.126;2024-03-17T14:01:42;10.88;;;5.30;;
20511;SDS011;10414;52.074;5.126;2024-03-17T14:04:12;8.38;;;4.55;;
20511;SDS011;10414;52.074;5.126;2024-03-17T14:06:40;11.07;;;4.90;;
20511;SDS011;10414;52.074;5.126;2024-03-17T14:09:07;9.15;;;4.40;;
20511;SDS011;10414;52.074;5.126;2024-03-17T14:11:35;10.95;;;5.00;;
20511;SDS011;10414;52.074;5.126;2024-03-17T14:14:03;10.50;;;4.82;;
20511;SDS011;10414;52.074;5.126;2024-03-17T14:16:32;11.35;;;5.15;;
20511;SDS011;10414;52.074;5.126;2024-03-17T14:18:59;11.57;;;5.63;;
20511;SDS011;10414;52.074;5.126;2024-03-17T14:21:27;14.20;;;5.55;;
20511;SDS011;10414;52.074;5.126;2024-03-17T14:23:54;10.70;;;6.10;;
20511;SDS011;10414;52.074;5.126;2024-03-17T14:26:22;11.00;;;5.72;;
20511;SDS011;10414;52.074;5.126;2024-03-17T14:28:50;12.05;;;5.45;;
20511;SDS011;10414;52.074;5.126;2024-03-17T14:31:19;9.73;;;5.57;;
20511;SDS011;10414;52.074;5.126;2024-03-17T14:33:47;12.77;;;5.90;;
20511;SDS011;10414;52.074;5.126;2024-03-17T14:36:15;10.90;;;5.22;;
20511;SDS011;10414;52.074;5.126;2024-03-17T14:38:43;12.70;;;5.63;;
20511;SDS011;10414;52.074;5.126;2024-03-17T14:41:10;12.13;;;5.80;;
20511;SDS011;10414;52.074;5.126;2024-03-17T14:43:37;11.40;;;6.07;;
20511;SDS011;10414;52.074;5.126;2024-03-17T14:46:05;11.20;;;5.32;;
20511;SDS011;10414;52.074;5.126;2024-03-17T14:48:35;13.00;;;5.78;;